| |
Missouri Department of Transportation

Social Media Facebook Twitter Flickr Instagram YouTube RSS

Current METAR Information for All MoDOT Locations 
AWOS Home - General Info for all Airports
Current AWOS for all Airports - Current METAR for all Airports
Glossary - Disclaimer - Other Links


Automated Weather Observation System
Date: 06-28-2016
 
Location Current METAR Record
HANNIBAL METAR KHAE 290142Z AUTO 05003KT CLR 23/13 A3010 RMK AO2 PWINO
HARRISONVILLE METAR KLRY 290155Z AUTO 00000KT 10SM CLR 25/20 A3012 RMK AO2
LEBANON  No current data available
MALDEN METAR KMAW 290149Z AUTO 00000KT 10SM CLR 27/23 A3003 RMK AO2
MARSHALL  No current data available
MARYVILLE  No current data available
MEXICO  No current data available
MOBERLY  No current data available
NEVADA  No current data available
PIEDMONT  No current data available
SIKESTON  No current data available
SULLIVAN  No current data available
WARSAW METAR KRAW 290149Z AUTO 00000KT 10SM CLR 24/19 A3011 RMK AO2
About Us
How Do I...
Contact Us
Missouri Department of Transportation
Central Office
105 W. Capitol Avenue
Jefferson City, MO 65102
1-888-ASK-MODOT (275-6636)
1-866-831-6277 (Motor Carrier Services)
Driver's License Offices
horz_bar
| | |
Missouri State Government
© 2013 Missouri Department of Transportation. All Rights Reserved.   Privacy Policy.
 
 
 
 
RSS FeedYoutubeBlogFlickrTwitter Facebook